Terminal Aerodrome Forecast
Issued by NWS Albany, NY

Home | Current Version | Previous Version | Text Only | Print | Product List | Glossary On
Versions: 1 2 3 4 5 6 7 8 9 10 11 12 13 14 15 16 17 18 19 20 21
000
FTUS41 KALY 300522
TAFALB
TAF
KALB 300522Z 3006/3106 17010KT P6SM SCT250
     FM301300 18012G22KT P6SM SCT050 BKN150
     FM302100 19014G25KT P6SM VCSH BKN050 PROB30 3021/3103
      VRB15G25KT 2SM TSRA OVC015CB
     FM310300 19010G16KT 5SM -SHRA BR OVC030=

USA.gov is the U.S. government's official web portal to all federal, state and local government web resources and services.